Time;durP1;ratioP1;P1;durP2;ratioP2;P2;SDS_P1;SDS_P2;PMS_P1;PMS_P2;Temp;Humidity;BMP_temperature;BMP_pressure;BME280_temperature;BME280_humidity;BME280_pressure;Samples;Min_cycle;Max_cycle;Signal;HPM_P1;HPM_P2
2022/04/08 00:01:01;;;;;;;5.30;2.10;;;;;;;;;;5112499;28;20075;-60
2022/04/08 00:03:27;;;;;;;6.13;1.90;;;;;;;;;;5111082;28;20092;-59
2022/04/08 00:05:54;;;;;;;13.80;2.22;;;;;;;;;;5111762;28;20020;-59
2022/04/08 00:08:21;;;;;;;6.35;1.90;;;;;;;;;;5112363;28;20513;-59
2022/04/08 00:10:47;;;;;;;6.43;2.08;;;;;;;;;;5112244;28;20121;-60
2022/04/08 00:13:13;;;;;;;6.88;2.15;;;;;;;;;;5112233;28;20042;-60
2022/04/08 00:15:40;;;;;;;5.13;1.70;;;;;;;;;;5112194;28;20032;-61
2022/04/08 00:18:06;;;;;;;3.67;1.80;;;;;;;;;;5112408;28;20026;-60
2022/04/08 00:20:33;;;;;;;6.70;1.90;;;;;;;;;;5110355;28;20089;-62
2022/04/08 00:23:01;;;;;;;5.63;2.00;;;;;;;;;;5110454;28;20036;-61
2022/04/08 00:25:27;;;;;;;6.22;1.70;;;;;;;;;;5105156;28;20026;-60
2022/04/08 00:27:53;;;;;;;4.20;1.65;;;;;;;;;;5111886;28;20130;-61
2022/04/08 00:30:19;;;;;;;4.28;1.70;;;;;;;;;;5092270;28;20028;-60
2022/04/08 00:32:46;;;;;;;4.07;1.83;;;;;;;;;;5092053;28;20024;-59
2022/04/08 00:35:12;;;;;;;3.95;1.70;;;;;;;;;;5110643;28;20034;-59
2022/04/08 00:37:39;;;;;;;4.93;1.65;;;;;;;;;;5112212;28;20028;-60
2022/04/08 00:40:07;;;;;;;4.97;1.88;;;;;;;;;;5110276;28;20040;-60
2022/04/08 00:42:33;;;;;;;4.57;2.13;;;;;;;;;;5091277;28;20078;-59
2022/04/08 00:44:59;;;;;;;4.32;1.60;;;;;;;;;;5106387;28;20094;-59
2022/04/08 00:47:25;;;;;;;4.68;1.90;;;;;;;;;;5111305;28;20024;-59
2022/04/08 00:49:53;;;;;;;5.10;1.58;;;;;;;;;;5111761;28;20020;-61
2022/04/08 00:52:20;;;;;;;4.30;1.77;;;;;;;;;;5111713;28;20078;-60
2022/04/08 00:54:46;;;;;;;4.35;1.73;;;;;;;;;;5112107;28;20409;-60
2022/04/08 00:57:13;;;;;;;3.28;1.50;;;;;;;;;;5109929;28;20390;-61
2022/04/08 00:59:39;;;;;;;3.75;1.60;;;;;;;;;;5105513;28;20094;-61
2022/04/08 01:02:05;;;;;;;7.78;1.40;;;;;;;;;;5111181;28;20031;-60
2022/04/08 01:04:31;;;;;;;3.88;1.50;;;;;;;;;;5111553;28;20031;-61
2022/04/08 01:06:57;;;;;;;4.53;1.80;;;;;;;;;;5111278;28;20765;-59
2022/04/08 01:09:23;;;;;;;3.38;1.30;;;;;;;;;;5111103;28;20049;-60
2022/04/08 01:11:50;;;;;;;8.38;1.38;;;;;;;;;;5111833;28;20054;-60
2022/04/08 01:14:16;;;;;;;3.15;1.42;;;;;;;;;;5113162;28;20062;-60
2022/04/08 01:16:43;;;;;;;4.72;1.55;;;;;;;;;;5111704;28;20028;-59
2022/04/08 01:19:09;;;;;;;5.45;1.60;;;;;;;;;;5115348;28;20042;-61
2022/04/08 01:21:35;;;;;;;4.32;1.80;;;;;;;;;;5114907;28;20097;-61
2022/04/08 01:24:02;;;;;;;7.32;1.83;;;;;;;;;;5115585;28;20031;-61
2022/04/08 01:26:28;;;;;;;3.50;1.50;;;;;;;;;;5114680;28;20047;-60
2022/04/08 01:28:55;;;;;;;3.63;1.50;;;;;;;;;;5115432;28;20111;-60
2022/04/08 01:31:24;;;;;;;3.20;1.55;;;;;;;;;;5115230;28;20035;-60
2022/04/08 01:33:51;;;;;;;4.15;1.83;;;;;;;;;;5097163;28;20410;-59
2022/04/08 01:36:17;;;;;;;5.13;1.50;;;;;;;;;;5115450;28;20023;-60
2022/04/08 01:38:43;;;;;;;3.95;1.40;;;;;;;;;;5115139;28;20038;-59
2022/04/08 01:41:09;;;;;;;6.47;1.60;;;;;;;;;;5114836;28;20036;-60
2022/04/08 01:43:35;;;;;;;5.88;1.80;;;;;;;;;;5114922;28;20035;-60
2022/04/08 01:46:01;;;;;;;3.17;1.50;;;;;;;;;;5115087;28;20054;-59
2022/04/08 01:48:28;;;;;;;3.30;1.48;;;;;;;;;;5114941;28;20041;-59
2022/04/08 01:50:54;;;;;;;3.42;1.65;;;;;;;;;;5114034;28;20103;-59
2022/04/08 01:53:20;;;;;;;5.50;1.77;;;;;;;;;;5114200;28;20490;-58
2022/04/08 01:55:46;;;;;;;3.38;1.50;;;;;;;;;;5113855;28;20052;-58
2022/04/08 01:58:12;;;;;;;4.57;1.60;;;;;;;;;;5114160;28;20031;-58
2022/04/08 02:00:38;;;;;;;3.83;1.38;;;;;;;;;;5113686;28;20529;-59
2022/04/08 02:03:04;;;;;;;3.92;1.45;;;;;;;;;;5103143;28;20178;-58
2022/04/08 02:05:32;;;;;;;2.70;1.40;;;;;;;;;;5113703;28;20482;-60
2022/04/08 02:07:58;;;;;;;4.13;1.48;;;;;;;;;;5114267;28;20043;-59
2022/04/08 02:10:25;;;;;;;3.47;1.20;;;;;;;;;;5113834;28;20030;-58
2022/04/08 02:12:52;;;;;;;2.65;1.20;;;;;;;;;;5114038;28;20023;-59
2022/04/08 02:15:26;;;;;;;3.25;1.60;;;;;;;;;;5114375;28;20498;-60
2022/04/08 02:17:52;;;;;;;2.97;1.30;;;;;;;;;;5113700;28;20020;-61
2022/04/08 02:20:18;;;;;;;4.70;1.48;;;;;;;;;;5113655;28;20028;-61
2022/04/08 02:22:44;;;;;;;5.00;1.58;;;;;;;;;;5113640;28;20046;-60
2022/04/08 02:25:11;;;;;;;3.80;1.52;;;;;;;;;;5113077;28;20028;-59
2022/04/08 02:27:38;;;;;;;4.18;1.27;;;;;;;;;;5113547;28;20474;-61
2022/04/08 02:30:04;;;;;;;2.95;1.50;;;;;;;;;;5113137;28;20023;-60
2022/04/08 02:32:30;;;;;;;4.40;1.30;;;;;;;;;;5113199;28;20023;-61
2022/04/08 02:34:56;;;;;;;3.70;1.58;;;;;;;;;;5114203;28;20032;-60
2022/04/08 02:37:22;;;;;;;3.22;1.38;;;;;;;;;;5113765;28;20126;-61
2022/04/08 02:39:48;;;;;;;3.55;1.45;;;;;;;;;;5113537;28;20016;-60
2022/04/08 02:42:14;;;;;;;4.18;1.50;;;;;;;;;;5113972;28;20068;-61
2022/04/08 02:44:40;;;;;;;5.35;1.75;;;;;;;;;;5113370;28;20123;-60
2022/04/08 02:47:07;;;;;;;5.63;1.67;;;;;;;;;;5113680;28;20027;-60
2022/04/08 02:49:33;;;;;;;4.38;1.58;;;;;;;;;;5113250;28;20019;-61
2022/04/08 02:51:59;;;;;;;3.30;1.30;;;;;;;;;;5113019;28;20627;-60
2022/04/08 02:54:26;;;;;;;3.00;1.50;;;;;;;;;;5113271;28;20429;-61
2022/04/08 02:56:52;;;;;;;3.88;1.45;;;;;;;;;;5113435;28;20015;-59
2022/04/08 02:59:18;;;;;;;3.03;1.50;;;;;;;;;;5113953;28;20032;-60
2022/04/08 03:01:44;;;;;;;5.22;1.70;;;;;;;;;;5113625;28;20108;-61
2022/04/08 03:04:10;;;;;;;3.25;1.52;;;;;;;;;;5113113;28;20031;-61
2022/04/08 03:06:36;;;;;;;6.05;1.50;;;;;;;;;;5113233;28;20012;-60
2022/04/08 03:09:03;;;;;;;3.97;1.58;;;;;;;;;;5113569;28;20043;-61
2022/04/08 03:11:29;;;;;;;3.58;1.70;;;;;;;;;;5113321;28;20016;-60
2022/04/08 03:13:59;;;;;;;4.60;1.40;;;;;;;;;;5112920;28;20028;-60
2022/04/08 03:16:25;;;;;;;3.25;1.42;;;;;;;;;;5108544;28;20494;-61
2022/04/08 03:18:51;;;;;;;3.20;1.30;;;;;;;;;;5092820;28;20162;-61
2022/04/08 03:21:17;;;;;;;4.60;1.35;;;;;;;;;;5111007;28;20065;-59
2022/04/08 03:23:44;;;;;;;3.28;1.50;;;;;;;;;;5112741;28;20020;-60
2022/04/08 03:26:10;;;;;;;4.00;1.40;;;;;;;;;;5112353;28;20023;-61
2022/04/08 03:28:36;;;;;;;2.45;1.15;;;;;;;;;;5112747;28;20023;-60
2022/04/08 03:31:02;;;;;;;3.60;1.20;;;;;;;;;;5112822;28;20080;-60
2022/04/08 03:33:29;;;;;;;4.18;1.38;;;;;;;;;;5106627;28;20020;-60
2022/04/08 03:35:55;;;;;;;3.53;1.08;;;;;;;;;;5112285;28;20099;-60
2022/04/08 03:38:21;;;;;;;3.17;0.90;;;;;;;;;;5112867;28;20065;-61
2022/04/08 03:40:48;;;;;;;4.20;1.20;;;;;;;;;;5112387;28;20048;-60
2022/04/08 03:43:14;;;;;;;2.58;1.17;;;;;;;;;;5112513;28;20030;-61
2022/04/08 03:45:40;;;;;;;4.30;1.20;;;;;;;;;;5112263;28;20055;-59
2022/04/08 03:48:08;;;;;;;2.67;1.15;;;;;;;;;;5112130;28;20023;-61
2022/04/08 03:50:35;;;;;;;2.28;0.85;;;;;;;;;;5111883;28;20063;-60
2022/04/08 03:53:01;;;;;;;5.68;1.27;;;;;;;;;;5112462;28;20019;-60
2022/04/08 03:55:27;;;;;;;3.85;1.00;;;;;;;;;;5112350;28;20027;-60
2022/04/08 03:57:53;;;;;;;3.97;1.20;;;;;;;;;;5111842;28;20451;-60
2022/04/08 04:00:19;;;;;;;2.55;0.95;;;;;;;;;;5112135;28;20023;-61
2022/04/08 04:02:46;;;;;;;2.17;0.88;;;;;;;;;;5112489;28;20035;-60
2022/04/08 04:05:12;;;;;;;1.45;0.70;;;;;;;;;;5111574;28;20068;-60
2022/04/08 04:07:38;;;;;;;1.15;0.60;;;;;;;;;;5111588;28;20031;-61
2022/04/08 04:10:04;;;;;;;2.40;0.80;;;;;;;;;;5107893;28;20016;-61
2022/04/08 04:12:30;;;;;;;4.43;0.88;;;;;;;;;;5110065;28;20405;-60
2022/04/08 04:14:56;;;;;;;3.70;0.90;;;;;;;;;;5111970;28;20019;-59
2022/04/08 04:17:23;;;;;;;2.60;0.90;;;;;;;;;;5112019;28;20043;-59
2022/04/08 04:19:50;;;;;;;4.43;0.88;;;;;;;;;;5111918;28;20026;-61
2022/04/08 04:22:16;;;;;;;7.60;1.00;;;;;;;;;;5112173;28;20035;-60
2022/04/08 04:24:42;;;;;;;4.78;0.80;;;;;;;;;;5093460;28;20405;-60
2022/04/08 04:27:08;;;;;;;5.03;1.30;;;;;;;;;;5112234;28;20539;-61
2022/04/08 04:29:34;;;;;;;1.73;0.70;;;;;;;;;;5112303;28;20039;-60
2022/04/08 04:32:03;;;;;;;4.07;0.60;;;;;;;;;;5112441;28;20077;-60
2022/04/08 04:34:29;;;;;;;1.75;0.60;;;;;;;;;;5111831;28;20545;-60
2022/04/08 04:36:55;;;;;;;3.10;0.85;;;;;;;;;;5111917;28;20068;-60
2022/04/08 04:39:21;;;;;;;4.00;0.80;;;;;;;;;;5111758;28;20020;-59
2022/04/08 04:41:47;;;;;;;6.95;0.70;;;;;;;;;;5111828;28;20051;-59
2022/04/08 04:44:13;;;;;;;4.20;0.80;;;;;;;;;;5111309;28;20468;-59
2022/04/08 04:46:40;;;;;;;4.53;0.80;;;;;;;;;;5111448;28;20094;-59
2022/04/08 04:49:06;;;;;;;7.88;0.95;;;;;;;;;;5113492;28;20019;-60
2022/04/08 04:51:32;;;;;;;1.92;0.60;;;;;;;;;;5115389;28;20023;-59
2022/04/08 04:53:58;;;;;;;3.83;0.70;;;;;;;;;;5115474;28;20022;-59
2022/04/08 04:56:26;;;;;;;3.67;0.60;;;;;;;;;;5114847;28;20464;-58
2022/04/08 04:58:52;;;;;;;5.13;1.23;;;;;;;;;;5115335;28;20016;-59
2022/04/08 05:01:18;;;;;;;1.88;0.50;;;;;;;;;;5114926;28;20028;-60
2022/04/08 05:03:44;;;;;;;8.63;0.60;;;;;;;;;;5115343;28;20031;-60
2022/04/08 05:06:10;;;;;;;3.20;1.13;;;;;;;;;;5115115;28;20049;-59
2022/04/08 05:08:36;;;;;;;4.50;1.00;;;;;;;;;;5114600;28;20034;-60
2022/04/08 05:11:02;;;;;;;4.70;1.08;;;;;;;;;;5114273;28;20366;-59
2022/04/08 05:13:28;;;;;;;6.28;1.30;;;;;;;;;;5114700;28;20026;-59
2022/04/08 05:15:54;;;;;;;5.13;1.08;;;;;;;;;;5110425;28;20036;-61
2022/04/08 05:18:20;;;;;;;5.80;0.95;;;;;;;;;;5111241;28;20122;-60
2022/04/08 05:20:49;;;;;;;7.22;1.17;;;;;;;;;;5113790;28;20521;-59
2022/04/08 05:23:15;;;;;;;4.57;1.10;;;;;;;;;;5088129;28;20394;-60
2022/04/08 05:25:41;;;;;;;5.20;0.90;;;;;;;;;;5114131;28;20024;-60
2022/04/08 05:28:11;;;;;;;3.00;1.13;;;;;;;;;;5114201;28;20157;-59
2022/04/08 05:30:37;;;;;;;7.60;0.95;;;;;;;;;;5114615;28;20016;-60
2022/04/08 05:33:03;;;;;;;3.60;0.88;;;;;;;;;;5114429;28;20400;-60
2022/04/08 05:35:29;;;;;;;3.13;0.95;;;;;;;;;;5113664;28;20046;-59
2022/04/08 05:37:55;;;;;;;5.95;1.00;;;;;;;;;;5114359;28;20051;-60
2022/04/08 05:40:21;;;;;;;6.00;1.08;;;;;;;;;;5112739;28;20035;-59
2022/04/08 05:42:48;;;;;;;4.43;0.75;;;;;;;;;;5113189;28;20034;-60
2022/04/08 05:45:16;;;;;;;3.20;0.95;;;;;;;;;;5113271;28;20019;-59
2022/04/08 05:47:43;;;;;;;4.07;0.88;;;;;;;;;;5113660;28;20408;-59
2022/04/08 05:50:09;;;;;;;4.22;0.90;;;;;;;;;;5113966;28;20405;-59
2022/04/08 05:52:35;;;;;;;4.72;1.10;;;;;;;;;;5113684;28;20031;-60
2022/04/08 05:55:01;;;;;;;2.95;0.70;;;;;;;;;;5113583;28;20020;-59
2022/04/08 05:57:27;;;;;;;5.57;0.98;;;;;;;;;;5114067;28;20023;-60
2022/04/08 05:59:58;;;;;;;4.78;1.00;;;;;;;;;;5100639;28;20020;-60
2022/04/08 06:02:25;;;;;;;1.58;0.60;;;;;;;;;;5109197;28;20057;-60
2022/04/08 06:04:51;;;;;;;3.53;0.93;;;;;;;;;;5113004;28;20031;-60
2022/04/08 06:07:18;;;;;;;2.70;0.88;;;;;;;;;;5113572;28;20024;-60
2022/04/08 06:09:44;;;;;;;3.72;0.63;;;;;;;;;;5113310;28;20039;-59
2022/04/08 06:12:10;;;;;;;5.93;0.75;;;;;;;;;;5113604;28;20028;-60
2022/04/08 06:14:36;;;;;;;2.85;0.70;;;;;;;;;;5104993;28;20035;-59
2022/04/08 06:17:02;;;;;;;3.50;0.70;;;;;;;;;;5108377;28;20024;-59
2022/04/08 06:19:28;;;;;;;2.80;0.70;;;;;;;;;;5095709;28;20048;-60
2022/04/08 06:21:54;;;;;;;5.15;0.88;;;;;;;;;;5112971;28;20032;-60
2022/04/08 06:24:20;;;;;;;7.18;0.70;;;;;;;;;;5094577;28;20020;-60
2022/04/08 06:26:46;;;;;;;4.30;1.10;;;;;;;;;;5113234;28;20024;-60
2022/04/08 06:29:12;;;;;;;3.30;0.95;;;;;;;;;;5113154;28;20054;-59
2022/04/08 06:31:38;;;;;;;3.72;0.73;;;;;;;;;;5113422;28;20065;-59
2022/04/08 06:34:05;;;;;;;3.00;0.90;;;;;;;;;;5113257;28;20046;-59
2022/04/08 06:36:31;;;;;;;4.38;0.98;;;;;;;;;;5112915;28;20122;-60
2022/04/08 06:38:57;;;;;;;3.42;0.77;;;;;;;;;;5113278;28;20028;-60
2022/04/08 06:41:23;;;;;;;7.00;1.10;;;;;;;;;;5112758;28;20130;-60
2022/04/08 06:43:49;;;;;;;4.05;0.80;;;;;;;;;;5112778;28;20032;-60
2022/04/08 06:46:15;;;;;;;3.60;1.08;;;;;;;;;;5112762;28;20072;-60
2022/04/08 06:48:42;;;;;;;3.13;0.95;;;;;;;;;;5113248;28;20428;-59
2022/04/08 06:51:08;;;;;;;2.97;0.70;;;;;;;;;;5113060;28;20027;-59
2022/04/08 06:53:34;;;;;;;5.70;0.90;;;;;;;;;;5113252;28;20153;-59
2022/04/08 06:56:04;;;;;;;7.18;1.02;;;;;;;;;;5098665;28;20032;-58
2022/04/08 06:58:31;;;;;;;3.60;0.95;;;;;;;;;;5112075;28;20050;-59
2022/04/08 07:00:57;;;;;;;4.93;1.00;;;;;;;;;;5102900;28;20035;-59
2022/04/08 07:03:24;;;;;;;4.45;0.80;;;;;;;;;;5091663;28;20474;-59
2022/04/08 07:05:50;;;;;;;5.65;0.93;;;;;;;;;;5101972;28;20019;-59
2022/04/08 07:08:16;;;;;;;3.70;0.77;;;;;;;;;;5112047;28;20498;-58
2022/04/08 07:10:42;;;;;;;4.38;1.20;;;;;;;;;;5111471;28;20077;-59
2022/04/08 07:13:08;;;;;;;5.75;1.10;;;;;;;;;;5111478;28;20030;-59
2022/04/08 07:15:34;;;;;;;4.72;0.85;;;;;;;;;;5111841;28;20023;-59
2022/04/08 07:18:00;;;;;;;4.40;0.95;;;;;;;;;;5111799;28;20023;-59
2022/04/08 07:20:27;;;;;;;3.42;0.63;;;;;;;;;;5111718;28;20516;-60
2022/04/08 07:22:53;;;;;;;2.95;0.80;;;;;;;;;;5112344;28;20043;-59
2022/04/08 07:25:19;;;;;;;3.33;0.80;;;;;;;;;;5112287;28;20027;-60
2022/04/08 07:27:46;;;;;;;4.40;0.70;;;;;;;;;;5111955;28;20027;-59
2022/04/08 07:30:12;;;;;;;5.43;0.98;;;;;;;;;;5111779;28;20030;-59
2022/04/08 07:32:38;;;;;;;2.35;0.70;;;;;;;;;;5112041;28;20024;-60
2022/04/08 07:35:05;;;;;;;4.22;0.90;;;;;;;;;;5111573;28;20019;-59
2022/04/08 07:37:32;;;;;;;3.05;0.80;;;;;;;;;;5111300;28;20027;-60
2022/04/08 07:39:58;;;;;;;4.70;0.88;;;;;;;;;;5111921;28;20031;-59
2022/04/08 07:42:24;;;;;;;2.65;0.70;;;;;;;;;;5111787;28;20510;-59
2022/04/08 07:44:50;;;;;;;1.65;0.60;;;;;;;;;;5111348;28;20028;-59
2022/04/08 07:47:18;;;;;;;2.78;0.90;;;;;;;;;;5111079;28;20028;-59
2022/04/08 07:49:44;;;;;;;2.08;0.70;;;;;;;;;;5111420;28;20012;-60
2022/04/08 07:52:10;;;;;;;2.33;0.70;;;;;;;;;;5111858;28;20016;-59
2022/04/08 07:54:36;;;;;;;2.78;0.68;;;;;;;;;;5111369;28;20063;-59
2022/04/08 07:57:02;;;;;;;2.97;0.82;;;;;;;;;;5111357;28;20020;-59
2022/04/08 07:59:28;;;;;;;1.98;0.77;;;;;;;;;;5110809;28;20413;-59
2022/04/08 08:01:54;;;;;;;2.92;0.65;;;;;;;;;;5111393;28;20066;-59
2022/04/08 08:04:21;;;;;;;3.75;0.85;;;;;;;;;;5111140;28;20038;-59
2022/04/08 08:06:48;;;;;;;3.22;0.65;;;;;;;;;;5110593;28;20401;-59
2022/04/08 08:09:14;;;;;;;3.05;0.90;;;;;;;;;;5110270;28;20032;-60
2022/04/08 08:11:40;;;;;;;2.35;0.70;;;;;;;;;;5111444;28;20489;-59
2022/04/08 08:14:06;;;;;;;3.63;1.00;;;;;;;;;;5092905;28;20063;-59
2022/04/08 08:16:32;;;;;;;3.30;0.60;;;;;;;;;;5110677;28;20061;-59
2022/04/08 08:18:59;;;;;;;3.55;0.70;;;;;;;;;;5109845;28;20020;-59
2022/04/08 08:21:25;;;;;;;3.90;0.82;;;;;;;;;;5110174;28;20043;-59
2022/04/08 08:23:51;;;;;;;1.75;0.52;;;;;;;;;;5111736;28;20110;-59
2022/04/08 08:26:17;;;;;;;4.80;0.80;;;;;;;;;;5115195;28;20024;-59
2022/04/08 08:28:43;;;;;;;3.33;0.70;;;;;;;;;;5115881;28;20079;-59
2022/04/08 08:31:10;;;;;;;5.88;0.60;;;;;;;;;;5097115;28;20023;-59
2022/04/08 08:33:36;;;;;;;2.25;0.60;;;;;;;;;;5115337;28;20024;-60
2022/04/08 08:36:02;;;;;;;1.70;0.60;;;;;;;;;;5115175;28;20028;-59
2022/04/08 08:38:28;;;;;;;4.00;0.80;;;;;;;;;;5114721;28;20023;-59
2022/04/08 08:40:56;;;;;;;3.38;0.80;;;;;;;;;;5114342;28;20047;-61
2022/04/08 08:43:22;;;;;;;3.45;0.70;;;;;;;;;;5099357;28;20047;-61
2022/04/08 08:45:49;;;;;;;4.10;0.80;;;;;;;;;;5114818;28;20047;-61
2022/04/08 08:48:15;;;;;;;2.15;0.80;;;;;;;;;;5112147;28;20027;-61
2022/04/08 08:50:46;;;;;;;3.22;0.75;;;;;;;;;;5108923;28;20548;-61
2022/04/08 08:53:13;;;;;;;4.07;0.82;;;;;;;;;;5107522;28;20023;-61
2022/04/08 08:55:39;;;;;;;2.17;0.50;;;;;;;;;;5115099;28;20028;-61
2022/04/08 08:58:05;;;;;;;1.60;0.50;;;;;;;;;;5105809;28;20036;-59
2022/04/08 09:00:31;;;;;;;11.82;1.10;;;;;;;;;;5106000;28;20296;-61
2022/04/08 09:02:57;;;;;;;7.28;1.25;;;;;;;;;;5112483;28;20043;-61
2022/04/08 09:05:24;;;;;;;6.35;1.25;;;;;;;;;;5104469;28;20019;-59
2022/04/08 09:07:54;;;;;;;9.00;1.10;;;;;;;;;;5111662;28;20104;-60
2022/04/08 09:10:24;;;;;;;6.07;0.95;;;;;;;;;;5109726;28;20020;-60
2022/04/08 09:12:54;;;;;;;5.35;0.80;;;;;;;;;;5109792;28;20066;-61
2022/04/08 09:15:20;;;;;;;3.13;0.90;;;;;;;;;;5114911;28;20055;-61
2022/04/08 09:17:46;;;;;;;4.88;0.70;;;;;;;;;;5106069;28;20054;-61
2022/04/08 09:20:12;;;;;;;6.95;0.82;;;;;;;;;;5114655;28;20028;-61
2022/04/08 09:22:38;;;;;;;3.03;0.75;;;;;;;;;;5114586;28;20035;-61
2022/04/08 09:25:11;;;;;;;2.42;0.73;;;;;;;;;;5115505;28;20038;-59
2022/04/08 09:27:38;;;;;;;5.43;0.75;;;;;;;;;;5115352;28;20099;-60
2022/04/08 09:30:04;;;;;;;3.03;0.70;;;;;;;;;;5109943;28;20032;-61
2022/04/08 09:32:30;;;;;;;3.38;0.73;;;;;;;;;;5094808;28;20483;-59
2022/04/08 09:34:57;;;;;;;2.17;0.60;;;;;;;;;;5113537;28;20528;-60
2022/04/08 09:37:24;;;;;;;3.30;0.90;;;;;;;;;;5114491;28;20107;-61
2022/04/08 09:40:05;;;;;;;4.07;0.60;;;;;;;;;;5114078;28;20157;-59
2022/04/08 09:42:44;;;;;;;6.28;0.75;;;;;;;;;;5114687;28;20042;-58
2022/04/08 09:45:11;;;;;;;0.60;0.32;;;;;;;;;;5114401;28;20032;-60
2022/04/08 09:47:37;;;;;;;2.63;0.57;;;;;;;;;;5113890;28;20027;-59
2022/04/08 09:50:04;;;;;;;2.95;0.70;;;;;;;;;;5114322;28;20023;-60
2022/04/08 09:52:32;;;;;;;3.05;0.70;;;;;;;;;;5112535;28;20088;-59
2022/04/08 09:54:59;;;;;;;4.68;0.73;;;;;;;;;;5106349;28;20016;-60
2022/04/08 09:57:25;;;;;;;3.65;0.68;;;;;;;;;;5107237;28;20068;-61
2022/04/08 09:59:54;;;;;;;4.85;0.80;;;;;;;;;;5097890;28;20020;-58
2022/04/08 10:02:20;;;;;;;3.20;0.77;;;;;;;;;;5093963;28;20035;-58
2022/04/08 10:04:46;;;;;;;4.95;0.75;;;;;;;;;;5093466;28;20530;-58
2022/04/08 10:07:12;;;;;;;3.78;0.65;;;;;;;;;;5093077;28;20028;-59
2022/04/08 10:09:46;;;;;;;2.22;0.65;;;;;;;;;;5093750;28;20072;-60
2022/04/08 10:12:25;;;;;;;2.05;0.75;;;;;;;;;;5111782;28;20102;-60
2022/04/08 10:14:53;;;;;;;2.42;0.65;;;;;;;;;;5114584;28;20020;-60
2022/04/08 10:17:20;;;;;;;1.63;0.50;;;;;;;;;;5114618;28;20030;-59
2022/04/08 10:19:46;;;;;;;2.50;0.70;;;;;;;;;;5114898;28;20019;-60
2022/04/08 10:22:16;;;;;;;2.40;0.70;;;;;;;;;;5115155;28;20049;-59
2022/04/08 10:24:51;;;;;;;1.33;0.47;;;;;;;;;;5104054;28;20027;-61
2022/04/08 10:27:27;;;;;;;3.00;0.45;;;;;;;;;;5102819;28;20016;-59
2022/04/08 10:29:56;;;;;;;2.40;0.63;;;;;;;;;;5104279;28;20016;-59
2022/04/08 10:32:22;;;;;;;2.47;0.60;;;;;;;;;;5112389;28;20016;-61
2022/04/08 10:34:49;;;;;;;1.13;0.50;;;;;;;;;;5098143;28;20497;-59
2022/04/08 10:37:16;;;;;;;1.85;0.60;;;;;;;;;;5105160;28;20436;-60
2022/04/08 10:39:43;;;;;;;3.83;0.75;;;;;;;;;;5105583;28;20102;-61
2022/04/08 10:42:20;;;;;;;1.42;0.63;;;;;;;;;;5110578;28;20031;-61
2022/04/08 10:44:46;;;;;;;2.30;0.70;;;;;;;;;;5097356;28;20027;-61
2022/04/08 10:47:14;;;;;;;4.32;0.60;;;;;;;;;;5112525;28;20475;-59
2022/04/08 10:50:12;;;;;;;2.20;0.70;;;;;;;;;;5113551;28;20462;-60
2022/04/08 10:52:41;;;;;;;2.05;0.65;;;;;;;;;;5041025;28;20036;-60
2022/04/08 10:55:09;;;;;;;2.60;0.45;;;;;;;;;;5100182;28;20406;-60
2022/04/08 10:57:39;;;;;;;3.03;0.85;;;;;;;;;;5101957;28;20035;-61
2022/04/08 11:00:06;;;;;;;5.15;0.82;;;;;;;;;;5105677;28;20034;-60
2022/04/08 11:02:35;;;;;;;1.92;0.70;;;;;;;;;;5112581;28;20509;-60
2022/04/08 11:05:08;;;;;;;2.75;0.57;;;;;;;;;;5105711;28;20051;-60
2022/04/08 11:07:35;;;;;;;5.10;0.60;;;;;;;;;;5103091;28;20410;-60
2022/04/08 11:10:03;;;;;;;2.90;0.60;;;;;;;;;;5103518;28;20077;-60
2022/04/08 11:12:30;;;;;;;2.58;0.60;;;;;;;;;;5102561;28;20020;-60
2022/04/08 11:15:02;;;;;;;2.03;0.60;;;;;;;;;;5100916;28;20016;-60
2022/04/08 11:17:35;;;;;;;3.85;0.60;;;;;;;;;;5108802;28;20031;-60
2022/04/08 11:20:04;;;;;;;7.43;0.73;;;;;;;;;;5103782;28;20070;-60
2022/04/08 11:22:43;;;;;;;2.30;0.75;;;;;;;;;;5108217;28;20218;-59
2022/04/08 11:25:10;;;;;;;2.35;0.45;;;;;;;;;;5112769;28;20043;-60
2022/04/08 11:27:37;;;;;;;1.77;0.50;;;;;;;;;;5112357;28;20028;-60
2022/04/08 11:30:09;;;;;;;29.23;2.22;;;;;;;;;;5107479;28;20051;-59
2022/04/08 11:32:39;;;;;;;25.80;1.38;;;;;;;;;;5112716;28;20022;-60
2022/04/08 11:35:14;;;;;;;8.18;0.90;;;;;;;;;;5112456;28;20069;-60
2022/04/08 11:37:40;;;;;;;11.48;1.08;;;;;;;;;;5105144;28;20032;-60
2022/04/08 11:40:07;;;;;;;4.90;1.00;;;;;;;;;;5102629;28;20032;-60
2022/04/08 11:42:33;;;;;;;3.88;1.00;;;;;;;;;;5111734;28;20123;-60
2022/04/08 11:44:59;;;;;;;6.50;0.60;;;;;;;;;;5111333;28;20019;-60
2022/04/08 11:47:33;;;;;;;1.50;0.50;;;;;;;;;;5110717;28;20028;-60
2022/04/08 11:50:06;;;;;;;2.90;0.70;;;;;;;;;;5108425;28;20023;-60
2022/04/08 11:52:32;;;;;;;1.15;0.45;;;;;;;;;;5098624;28;20115;-60
2022/04/08 11:55:03;;;;;;;1.92;0.47;;;;;;;;;;5100323;28;20363;-60
2022/04/08 11:57:30;;;;;;;3.75;0.50;;;;;;;;;;5093331;28;20363;-60
2022/04/08 11:59:57;;;;;;;4.65;0.77;;;;;;;;;;5108618;28;20094;-61
2022/04/08 12:02:23;;;;;;;3.13;0.47;;;;;;;;;;5104784;28;20054;-61
2022/04/08 12:04:52;;;;;;;2.13;0.38;;;;;;;;;;5100636;28;20047;-60
2022/04/08 12:07:25;;;;;;;1.25;0.40;;;;;;;;;;5097042;28;20028;-60
2022/04/08 12:09:55;;;;;;;1.45;0.50;;;;;;;;;;5107678;28;20106;-60
2022/04/08 12:12:30;;;;;;;4.13;0.50;;;;;;;;;;5096768;28;20047;-60
2022/04/08 12:15:07;;;;;;;1.88;0.52;;;;;;;;;;5108274;28;20163;-60
2022/04/08 12:17:46;;;;;;;3.78;0.80;;;;;;;;;;5111779;28;20023;-61
2022/04/08 12:20:16;;;;;;;1.63;0.40;;;;;;;;;;5111487;28;20502;-60
2022/04/08 12:22:42;;;;;;;5.43;0.55;;;;;;;;;;5111496;28;20039;-61
2022/04/08 12:25:08;;;;;;;23.38;2.97;;;;;;;;;;5111483;28;20054;-61
2022/04/08 12:27:35;;;;;;;12.02;1.60;;;;;;;;;;5111690;28;20024;-61
2022/04/08 12:30:08;;;;;;;6.35;1.10;;;;;;;;;;5105338;28;20111;-61
2022/04/08 12:32:45;;;;;;;11.00;1.65;;;;;;;;;;5102798;28;20095;-60
2022/04/08 12:35:12;;;;;;;9.70;1.10;;;;;;;;;;5101448;28;20016;-61
2022/04/08 12:37:38;;;;;;;3.63;0.98;;;;;;;;;;5104161;28;20020;-61
2022/04/08 12:40:05;;;;;;;6.18;1.40;;;;;;;;;;5093986;28;20109;-61
2022/04/08 12:42:35;;;;;;;4.47;1.30;;;;;;;;;;5106956;28;20457;-61
2022/04/08 12:45:01;;;;;;;8.77;1.30;;;;;;;;;;5080609;28;20482;-60
2022/04/08 12:47:27;;;;;;;4.93;1.23;;;;;;;;;;5099948;28;20036;-61
2022/04/08 12:49:53;;;;;;;4.47;1.02;;;;;;;;;;5110746;28;20138;-60
2022/04/08 12:52:19;;;;;;;5.50;1.27;;;;;;;;;;5094859;28;20023;-61
2022/04/08 12:54:45;;;;;;;8.20;1.30;;;;;;;;;;5102280;28;20020;-59
2022/04/08 12:57:11;;;;;;;6.95;0.70;;;;;;;;;;5072535;28;20030;-60
2022/04/08 12:59:38;;;;;;;7.32;1.17;;;;;;;;;;5089616;28;20051;-60
2022/04/08 13:02:04;;;;;;;9.57;1.35;;;;;;;;;;5090709;28;20028;-60
2022/04/08 13:04:30;;;;;;;4.57;1.15;;;;;;;;;;5090834;28;20025;-60
2022/04/08 13:06:59;;;;;;;5.75;0.90;;;;;;;;;;5090810;28;20101;-60
2022/04/08 13:09:25;;;;;;;6.55;1.20;;;;;;;;;;5102026;28;20495;-61
2022/04/08 13:11:51;;;;;;;5.10;0.88;;;;;;;;;;5114550;28;20389;-61
2022/04/08 13:14:17;;;;;;;7.78;1.38;;;;;;;;;;5114415;28;20115;-62
2022/04/08 13:16:43;;;;;;;6.45;1.15;;;;;;;;;;5114397;28;20023;-64
2022/04/08 13:19:09;;;;;;;8.43;0.88;;;;;;;;;;5114824;28;20028;-63
2022/04/08 13:21:36;;;;;;;10.35;0.90;;;;;;;;;;5114466;28;20046;-61
2022/04/08 13:24:02;;;;;;;5.53;1.00;;;;;;;;;;5103923;28;20150;-61
2022/04/08 13:26:28;;;;;;;6.03;1.08;;;;;;;;;;5106888;28;20514;-62
2022/04/08 13:28:55;;;;;;;5.80;0.93;;;;;;;;;;5114403;28;20027;-62
2022/04/08 13:31:21;;;;;;;8.50;0.90;;;;;;;;;;5114489;28;20031;-61
2022/04/08 13:33:47;;;;;;;7.93;1.00;;;;;;;;;;5104015;28;20028;-64
2022/04/08 13:36:13;;;;;;;10.40;1.73;;;;;;;;;;5112274;28;20055;-62
2022/04/08 13:38:39;;;;;;;8.10;1.10;;;;;;;;;;5104366;28;20034;-62
2022/04/08 13:41:05;;;;;;;5.28;0.80;;;;;;;;;;5104763;28;20048;-61
2022/04/08 13:43:31;;;;;;;5.10;0.98;;;;;;;;;;5110299;28;20067;-63
2022/04/08 13:45:57;;;;;;;5.85;0.75;;;;;;;;;;5098566;28;20027;-62
2022/04/08 13:48:24;;;;;;;8.82;0.95;;;;;;;;;;5104931;28;20034;-63
2022/04/08 13:50:50;;;;;;;5.38;0.95;;;;;;;;;;5105401;28;20049;-63
2022/04/08 13:53:16;;;;;;;7.00;1.00;;;;;;;;;;5111166;28;20069;-62
2022/04/08 13:55:42;;;;;;;6.78;0.82;;;;;;;;;;5100055;28;20012;-61
2022/04/08 13:58:08;;;;;;;3.92;0.90;;;;;;;;;;5113959;28;20149;-61
2022/04/08 14:00:34;;;;;;;12.05;1.35;;;;;;;;;;5112870;28;20020;-63
2022/04/08 14:03:01;;;;;;;3.33;0.63;;;;;;;;;;5100214;28;20115;-62
2022/04/08 14:05:27;;;;;;;7.45;1.02;;;;;;;;;;5109969;28;20220;-62
2022/04/08 14:07:53;;;;;;;4.82;0.80;;;;;;;;;;5113301;28;20015;-62
2022/04/08 14:10:19;;;;;;;3.60;0.90;;;;;;;;;;5105381;28;20103;-64
2022/04/08 14:12:45;;;;;;;3.28;0.80;;;;;;;;;;5104742;28;20160;-61
2022/04/08 14:15:11;;;;;;;6.20;1.17;;;;;;;;;;5097813;28;20463;-62
2022/04/08 14:17:37;;;;;;;6.53;1.17;;;;;;;;;;5103117;28;20031;-62
2022/04/08 14:20:04;;;;;;;7.00;1.13;;;;;;;;;;5086687;28;20428;-63
2022/04/08 14:22:30;;;;;;;6.93;1.00;;;;;;;;;;5107650;28;20034;-61
2022/04/08 14:24:57;;;;;;;5.80;0.93;;;;;;;;;;5109790;28;20020;-62
2022/04/08 14:27:23;;;;;;;5.38;0.90;;;;;;;;;;5105986;28;20100;-64
2022/04/08 14:29:49;;;;;;;3.33;0.80;;;;;;;;;;5104425;28;20020;-63
2022/04/08 14:32:15;;;;;;;7.30;1.10;;;;;;;;;;5100684;28;20026;-64
2022/04/08 14:34:41;;;;;;;3.45;1.13;;;;;;;;;;5097227;28;20032;-59
2022/04/08 14:37:07;;;;;;;7.20;1.35;;;;;;;;;;5113085;28;20028;-60
2022/04/08 14:39:33;;;;;;;5.75;0.90;;;;;;;;;;5111414;28;20059;-59
2022/04/08 14:42:00;;;;;;;8.82;1.10;;;;;;;;;;5111009;28;20494;-60